Time;durP1;ratioP1;P1;durP2;ratioP2;P2;SDS_P1;SDS_P2;PMS_P1;PMS_P2;Temp;Humidity;BMP_temperature;BMP_pressure;BME280_temperature;BME280_humidity;BME280_pressure;Samples;Min_cycle;Max_cycle;Signal;HPM_P1;HPM_P2
2023/04/03 00:00:33;;;;;;;4.53;1.20;;;;;;;;;;5013059;28;20530;-85
2023/04/03 00:03:18;;;;;;;2.47;1.10;;;;;;;;;;5013311;28;20200;-84
2023/04/03 00:06:06;;;;;;;2.83;0.90;;;;;;;;;;5012085;28;20164;-84
2023/04/03 00:08:51;;;;;;;3.03;1.20;;;;;;;;;;5012672;28;20494;-84
2023/04/03 00:11:36;;;;;;;5.07;1.10;;;;;;;;;;5013489;28;20048;-85
2023/04/03 00:14:21;;;;;;;4.90;1.40;;;;;;;;;;5013562;28;20113;-84
2023/04/03 00:17:05;;;;;;;2.03;1.00;;;;;;;;;;4998203;28;20398;-84
2023/04/03 00:19:50;;;;;;;4.03;1.20;;;;;;;;;;5013387;28;20457;-84
2023/04/03 00:22:34;;;;;;;3.83;1.40;;;;;;;;;;5013352;28;20063;-85
2023/04/03 00:25:19;;;;;;;6.37;1.77;;;;;;;;;;4997912;28;20041;-84
2023/04/03 00:28:04;;;;;;;3.83;0.90;;;;;;;;;;5005803;28;20406;-85
2023/04/03 00:30:50;;;;;;;3.53;1.13;;;;;;;;;;5013309;28;20040;-84
2023/04/03 00:33:34;;;;;;;1.90;1.13;;;;;;;;;;5011855;28;20037;-84
2023/04/03 00:36:19;;;;;;;2.40;1.20;;;;;;;;;;5011391;28;20068;-84
2023/04/03 00:39:03;;;;;;;5.03;1.20;;;;;;;;;;5011641;28;20061;-84
2023/04/03 00:41:48;;;;;;;2.63;1.10;;;;;;;;;;5012102;28;20091;-85
2023/04/03 00:44:35;;;;;;;3.60;1.30;;;;;;;;;;4998727;28;20069;-84
2023/04/03 00:47:20;;;;;;;2.90;1.00;;;;;;;;;;5000070;28;20125;-84
2023/04/03 00:50:05;;;;;;;3.53;1.10;;;;;;;;;;5011223;28;20081;-84
2023/04/03 00:52:50;;;;;;;2.77;1.13;;;;;;;;;;5012961;28;20479;-84
2023/04/03 00:55:36;;;;;;;2.00;1.20;;;;;;;;;;5012619;28;20040;-85
2023/04/03 00:58:21;;;;;;;2.70;1.43;;;;;;;;;;5011165;28;20044;-84
2023/04/03 01:01:08;;;;;;;3.53;1.30;;;;;;;;;;5011226;28;20542;-86
2023/04/03 01:03:53;;;;;;;4.87;1.57;;;;;;;;;;5012437;28;20482;-85
2023/04/03 01:06:37;;;;;;;3.47;1.37;;;;;;;;;;5011474;28;20053;-84
2023/04/03 01:09:22;;;;;;;3.37;1.57;;;;;;;;;;5011066;28;20044;-84
2023/04/03 01:12:42;;;;;;;2.63;1.33;;;;;;;;;;5011004;28;20143;-84
2023/04/03 01:15:34;;;;;;;3.07;1.43;;;;;;;;;;4918946;29;20078;-84
2023/04/03 01:18:20;;;;;;;3.53;1.60;;;;;;;;;;4988350;28;20545;-84
2023/04/03 01:21:04;;;;;;;3.30;1.70;;;;;;;;;;5010917;28;20092;-87
2023/04/03 01:24:12;;;;;;;4.20;1.53;;;;;;;;;;5011160;28;20092;-85
2023/04/03 01:26:57;;;;;;;5.97;1.73;;;;;;;;;;5011132;28;20053;-84
2023/04/03 01:29:43;;;;;;;5.20;1.53;;;;;;;;;;5012300;28;20044;-84
2023/04/03 01:32:27;;;;;;;3.23;1.23;;;;;;;;;;5009666;28;20049;-85
2023/04/03 01:35:12;;;;;;;3.10;1.40;;;;;;;;;;5010532;28;20108;-84
2023/04/03 01:37:57;;;;;;;3.97;1.67;;;;;;;;;;5010919;28;20033;-84
2023/04/03 01:40:42;;;;;;;2.87;1.20;;;;;;;;;;5011207;28;20501;-84
2023/04/03 01:43:26;;;;;;;3.77;1.60;;;;;;;;;;5010706;28;20606;-84
2023/04/03 01:46:11;;;;;;;3.43;1.70;;;;;;;;;;5011524;28;20128;-84
2023/04/03 01:48:56;;;;;;;8.80;2.37;;;;;;;;;;4997465;28;20049;-84
2023/04/03 01:51:40;;;;;;;3.83;1.70;;;;;;;;;;4997086;28;20406;-85
2023/04/03 01:54:25;;;;;;;3.43;1.33;;;;;;;;;;5010427;28;20501;-84
2023/04/03 01:57:10;;;;;;;3.27;1.30;;;;;;;;;;5010531;28;20562;-87
2023/04/03 01:59:55;;;;;;;4.00;1.40;;;;;;;;;;5011733;28;20494;-85
2023/04/03 02:02:39;;;;;;;4.70;1.60;;;;;;;;;;4996965;28;20054;-84
2023/04/03 02:05:24;;;;;;;4.73;1.40;;;;;;;;;;5009876;28;20485;-84
2023/04/03 02:08:09;;;;;;;4.50;1.43;;;;;;;;;;5011596;28;20107;-85
2023/04/03 02:10:53;;;;;;;4.70;1.60;;;;;;;;;;4997023;28;20091;-84
2023/04/03 02:13:38;;;;;;;3.90;1.47;;;;;;;;;;5011670;28;20073;-84
2023/04/03 02:16:22;;;;;;;2.50;1.27;;;;;;;;;;5010082;28;20044;-84
2023/04/03 02:19:07;;;;;;;3.40;1.50;;;;;;;;;;4996717;28;20088;-85
2023/04/03 02:21:51;;;;;;;3.50;1.60;;;;;;;;;;5011413;28;20049;-84
2023/04/03 02:24:36;;;;;;;3.10;1.47;;;;;;;;;;5011183;28;20072;-84
2023/04/03 02:27:20;;;;;;;4.47;1.60;;;;;;;;;;5011069;28;20057;-84
2023/04/03 02:30:05;;;;;;;4.13;1.93;;;;;;;;;;5010394;28;20068;-84
2023/04/03 02:32:50;;;;;;;6.23;2.17;;;;;;;;;;5011530;28;20049;-84
2023/04/03 02:35:36;;;;;;;4.33;1.73;;;;;;;;;;5010810;28;20061;-84
2023/04/03 02:38:21;;;;;;;6.53;2.03;;;;;;;;;;4990148;28;20035;-84
2023/04/03 02:41:07;;;;;;;5.43;1.77;;;;;;;;;;5001328;28;20041;-84
2023/04/03 02:43:52;;;;;;;4.47;2.07;;;;;;;;;;5014064;28;20048;-84
2023/04/03 02:46:37;;;;;;;6.37;1.77;;;;;;;;;;5013722;28;20080;-86
2023/04/03 02:49:21;;;;;;;6.77;1.87;;;;;;;;;;4999905;28;20080;-84
2023/04/03 02:52:05;;;;;;;4.43;1.50;;;;;;;;;;5015423;28;20415;-85
2023/04/03 02:54:50;;;;;;;6.17;2.97;;;;;;;;;;5015094;28;20046;-84
2023/04/03 02:57:35;;;;;;;4.67;2.10;;;;;;;;;;4999845;28;20467;-84
2023/04/03 03:00:19;;;;;;;3.43;1.77;;;;;;;;;;5014244;28;20036;-85
2023/04/03 03:03:05;;;;;;;4.07;1.47;;;;;;;;;;5014834;28;20045;-84
2023/04/03 03:05:49;;;;;;;5.70;1.80;;;;;;;;;;5014939;28;20036;-84
2023/04/03 03:08:34;;;;;;;4.07;1.80;;;;;;;;;;5014113;28;20104;-83
2023/04/03 03:11:19;;;;;;;4.37;1.60;;;;;;;;;;5014616;28;20048;-88
2023/04/03 03:14:04;;;;;;;5.00;1.77;;;;;;;;;;5014937;28;20045;-84
2023/04/03 03:16:49;;;;;;;4.53;1.67;;;;;;;;;;5013726;28;20036;-84
2023/04/03 03:19:34;;;;;;;5.63;2.10;;;;;;;;;;4999535;28;20088;-84
2023/04/03 03:22:19;;;;;;;7.17;1.93;;;;;;;;;;4999550;28;20046;-84
2023/04/03 03:25:03;;;;;;;4.73;1.83;;;;;;;;;;5014644;28;20137;-84
2023/04/03 03:27:48;;;;;;;5.73;1.67;;;;;;;;;;5014814;28;20204;-84
2023/04/03 03:30:33;;;;;;;4.43;1.73;;;;;;;;;;4998992;28;20044;-84
2023/04/03 03:33:18;;;;;;;7.90;2.10;;;;;;;;;;5014429;28;20106;-86
2023/04/03 03:36:03;;;;;;;5.33;2.07;;;;;;;;;;5013577;28;20080;-84
2023/04/03 03:38:48;;;;;;;13.47;3.60;;;;;;;;;;5013077;28;20092;-83
2023/04/03 03:41:32;;;;;;;5.57;1.70;;;;;;;;;;5013242;28;20045;-84
2023/04/03 03:44:17;;;;;;;3.53;1.73;;;;;;;;;;4999213;28;20470;-84
2023/04/03 03:47:02;;;;;;;6.50;2.00;;;;;;;;;;5014028;28;20402;-84
2023/04/03 03:49:47;;;;;;;2.97;1.67;;;;;;;;;;5012065;28;20045;-84
2023/04/03 03:52:32;;;;;;;7.87;2.17;;;;;;;;;;5013353;28;20088;-84
2023/04/03 03:55:17;;;;;;;4.60;1.90;;;;;;;;;;4998459;28;20037;-84
2023/04/03 03:58:02;;;;;;;5.30;2.17;;;;;;;;;;5013358;28;20117;-84
2023/04/03 04:00:46;;;;;;;6.47;2.20;;;;;;;;;;5013315;28;20218;-84
2023/04/03 04:03:30;;;;;;;6.37;2.13;;;;;;;;;;5013122;28;20045;-84
2023/04/03 04:06:15;;;;;;;6.77;2.83;;;;;;;;;;5013740;28;20395;-84
2023/04/03 04:09:00;;;;;;;4.70;2.00;;;;;;;;;;5012606;28;20045;-84
2023/04/03 04:11:45;;;;;;;7.47;2.47;;;;;;;;;;5012006;28;20036;-84
2023/04/03 04:14:30;;;;;;;6.23;2.20;;;;;;;;;;5013157;28;20093;-84
2023/04/03 04:17:14;;;;;;;4.57;2.40;;;;;;;;;;5013427;28;20412;-84
2023/04/03 04:19:59;;;;;;;4.43;2.00;;;;;;;;;;5013596;28;20040;-84
2023/04/03 04:22:43;;;;;;;7.13;2.20;;;;;;;;;;4998128;28;20065;-85
2023/04/03 04:25:28;;;;;;;5.47;2.27;;;;;;;;;;4998227;28;20048;-87
2023/04/03 04:28:12;;;;;;;8.23;2.40;;;;;;;;;;5011987;28;20068;-85
2023/04/03 04:30:57;;;;;;;8.13;2.43;;;;;;;;;;5013032;28;20095;-85
2023/04/03 04:33:41;;;;;;;7.67;2.80;;;;;;;;;;4997741;28;20096;-84
2023/04/03 04:36:26;;;;;;;6.37;2.40;;;;;;;;;;5005590;28;20084;-84
2023/04/03 04:39:11;;;;;;;7.17;4.60;;;;;;;;;;5013403;28;20040;-85
2023/04/03 04:41:55;;;;;;;15.00;3.53;;;;;;;;;;5013063;28;20064;-84
2023/04/03 04:44:40;;;;;;;7.50;3.23;;;;;;;;;;5009439;28;20491;-88
2023/04/03 04:47:25;;;;;;;9.23;2.60;;;;;;;;;;5005692;28;20072;-85
2023/04/03 04:50:10;;;;;;;5.80;2.47;;;;;;;;;;5004727;28;20092;-84
2023/04/03 04:52:54;;;;;;;8.57;2.70;;;;;;;;;;5005336;28;20041;-85
2023/04/03 04:55:39;;;;;;;8.83;2.50;;;;;;;;;;5004944;28;20045;-87
2023/04/03 04:58:25;;;;;;;7.90;3.10;;;;;;;;;;5005535;28;20049;-85
2023/04/03 05:01:10;;;;;;;6.20;2.30;;;;;;;;;;5004196;28;20552;-85
2023/04/03 05:03:55;;;;;;;3.97;2.23;;;;;;;;;;5005149;28;20048;-85
2023/04/03 05:06:40;;;;;;;6.20;2.67;;;;;;;;;;5003680;28;20071;-86
2023/04/03 05:09:25;;;;;;;8.70;2.83;;;;;;;;;;5005339;28;20401;-86
2023/04/03 05:12:10;;;;;;;7.17;2.57;;;;;;;;;;4990642;28;20077;-84
2023/04/03 05:14:55;;;;;;;6.10;2.70;;;;;;;;;;5004430;28;20100;-86
2023/04/03 05:17:40;;;;;;;8.63;2.80;;;;;;;;;;5005080;28;20064;-86
2023/04/03 05:20:25;;;;;;;9.20;2.90;;;;;;;;;;5003798;28;20056;-86
2023/04/03 05:23:11;;;;;;;5.60;2.97;;;;;;;;;;5005215;28;20092;-85
2023/04/03 05:25:55;;;;;;;8.20;2.80;;;;;;;;;;4990072;28;20144;-85
2023/04/03 05:28:40;;;;;;;5.43;2.70;;;;;;;;;;5004608;28;20069;-86
2023/04/03 05:31:24;;;;;;;6.80;2.57;;;;;;;;;;5004869;28;20040;-85
2023/04/03 05:34:09;;;;;;;7.57;2.70;;;;;;;;;;5004731;28;20049;-87
2023/04/03 05:36:54;;;;;;;7.30;2.80;;;;;;;;;;5004366;28;20056;-86
2023/04/03 05:39:40;;;;;;;5.60;2.90;;;;;;;;;;5003961;28;20799;-86
2023/04/03 05:42:25;;;;;;;6.07;2.57;;;;;;;;;;5004236;28;20522;-85
2023/04/03 05:45:10;;;;;;;6.47;3.20;;;;;;;;;;4986446;28;20579;-86
2023/04/03 05:47:55;;;;;;;7.67;2.90;;;;;;;;;;5018463;28;20037;-87
2023/04/03 05:50:41;;;;;;;7.50;3.57;;;;;;;;;;5021136;28;20052;-85
2023/04/03 05:53:28;;;;;;;5.70;2.63;;;;;;;;;;5019375;28;20047;-85
2023/04/03 05:56:13;;;;;;;10.13;3.63;;;;;;;;;;5021103;28;20071;-85
2023/04/03 05:58:58;;;;;;;10.10;3.67;;;;;;;;;;5001740;28;20069;-85
2023/04/03 06:01:42;;;;;;;4.90;2.90;;;;;;;;;;5012695;28;20056;-85
2023/04/03 06:04:27;;;;;;;10.73;2.60;;;;;;;;;;5029694;28;20421;-85
2023/04/03 06:07:13;;;;;;;8.07;3.10;;;;;;;;;;4986922;28;20044;-85
2023/04/03 06:09:58;;;;;;;7.90;2.70;;;;;;;;;;5021015;28;20037;-86
2023/04/03 06:12:43;;;;;;;8.33;4.70;;;;;;;;;;5013067;28;20398;-86
2023/04/03 06:15:28;;;;;;;8.83;3.27;;;;;;;;;;5008614;28;20465;-84
2023/04/03 06:18:13;;;;;;;10.13;4.20;;;;;;;;;;5005511;28;20037;-84
2023/04/03 06:20:57;;;;;;;12.97;4.87;;;;;;;;;;5011842;28;20576;-84
2023/04/03 06:23:42;;;;;;;8.27;3.60;;;;;;;;;;5003702;28;20052;-84
2023/04/03 06:26:27;;;;;;;14.97;5.63;;;;;;;;;;4991560;28;20057;-84
2023/04/03 06:29:12;;;;;;;13.37;5.60;;;;;;;;;;5016750;28;20498;-84
2023/04/03 06:31:57;;;;;;;10.00;3.67;;;;;;;;;;5009972;28;20049;-84
2023/04/03 06:34:41;;;;;;;10.13;3.47;;;;;;;;;;5008525;28;20039;-87
2023/04/03 06:37:27;;;;;;;6.43;2.57;;;;;;;;;;5002220;28;20458;-86
2023/04/03 06:40:18;;;;;;;11.17;2.80;;;;;;;;;;5011429;28;20451;-83
2023/04/03 06:43:03;;;;;;;5.87;2.57;;;;;;;;;;5010786;28;20100;-83
2023/04/03 06:45:48;;;;;;;6.13;2.70;;;;;;;;;;5020833;28;20390;-84
2023/04/03 06:48:32;;;;;;;11.27;2.93;;;;;;;;;;5016831;28;20112;-84
2023/04/03 06:51:25;;;;;;;5.87;2.73;;;1.90;99.90;;;;;;4995272;28;20057;-87
2023/04/03 06:54:10;;;;;;;7.43;2.65;;;;;;;;;;5005044;28;20060;-85
2023/04/03 06:56:55;;;;;;;7.07;2.40;;;;;;;;;;4999089;28;20118;-84
2023/04/03 06:59:40;;;;;;;8.40;2.47;;;;;;;;;;5010264;28;20813;-85
2023/04/03 07:02:24;;;;;;;10.30;3.50;;;;;;;;;;4999725;28;20165;-86
2023/04/03 07:05:10;;;;;;;5.53;2.00;;;;;;;;;;5012424;28;20084;-85
2023/04/03 07:07:55;;;;;;;7.60;2.77;;;;;;;;;;5012463;28;20220;-83
2023/04/03 07:10:39;;;;;;;5.40;2.07;;;;;;;;;;5017726;28;20044;-83
2023/04/03 07:13:24;;;;;;;6.03;2.43;;;;;;;;;;5030236;28;20096;-83
2023/04/03 07:16:09;;;;;;;6.83;2.40;;;;;;;;;;5029862;28;20123;-83
2023/04/03 07:18:54;;;;;;;5.17;2.20;;;;;;;;;;5029691;28;20029;-84
2023/04/03 07:21:38;;;;;;;8.30;1.90;;;;;;;;;;5015468;28;20076;-84
2023/04/03 07:24:23;;;;;;;7.35;2.75;;;;;;;;;;5015707;28;20059;-84
2023/04/03 07:27:08;;;;;;;5.90;2.28;;;;;;;;;;5027144;28;20137;-84
2023/04/03 07:29:53;;;;;;;8.65;2.25;;;;;;;;;;5010031;28;20045;-84
2023/04/03 07:32:38;;;;;;;5.00;1.92;;;;;;;;;;5018632;28;20103;-84
2023/04/03 07:35:22;;;;;;;8.05;2.20;;;;;;;;;;5018750;28;20063;-84
2023/04/03 07:38:07;;;;;;;4.93;2.00;;;;;;;;;;4999893;28;20041;-83
2023/04/03 07:40:52;;;;;;;6.57;2.38;;;;;;;;;;5013591;28;20045;-84
2023/04/03 07:43:37;;;;;;;8.40;2.20;;;;;;;;;;5013710;28;20092;-83
2023/04/03 07:46:21;;;;;;;7.43;2.10;;;;;;;;;;5013899;28;20493;-84
2023/04/03 07:49:06;;;;;;;7.47;2.88;;;;;;;;;;5013470;28;20057;-83
2023/04/03 07:51:51;;;;;;;7.88;3.65;;;;;;;;;;5012525;28;20092;-85
2023/04/03 07:54:35;;;;;;;11.15;3.22;;;;;;;;;;5013610;28;20044;-84
2023/04/03 07:57:20;;;;;;;7.65;2.25;;;;;;;;;;5013836;28;20107;-84
2023/04/03 08:00:05;;;;;;;5.35;1.80;;;5.60;99.90;;;;;;4998314;28;20088;-83
2023/04/03 08:02:51;;;;;;;8.68;2.25;;;;;;;;;;4998996;28;20053;-83
2023/04/03 08:05:40;;;;;;;6.32;1.88;;;;;;;;;;4999192;28;20105;-83
2023/04/03 08:08:26;;;;;;;3.88;1.90;;;;;;;;;;5013620;28;20084;-84
2023/04/03 08:11:11;;;;;;;8.15;2.85;;;5.90;99.90;;;;;;5013234;28;20412;-84
2023/04/03 08:13:56;;;;;;;8.48;1.92;;;;;;;;;;4998163;28;20091;-84
2023/04/03 08:16:40;;;;;;;5.65;1.65;;;;;;;;;;5012324;28;20052;-83
2023/04/03 08:19:25;;;;;;;6.20;1.88;;;;;;;;;;4998682;28;20040;-84
2023/04/03 08:22:10;;;;;;;5.60;1.70;;;;;;;;;;5011675;28;20057;-83
2023/04/03 08:24:54;;;;;;;11.52;2.10;;;;;;;;;;5014816;28;20104;-84
2023/04/03 08:27:39;;;;;;;5.25;1.60;;;;;;;;;;4998500;28;20126;-82
2023/04/03 08:30:24;;;;;;;6.03;2.38;;;;;;;;;;5008821;28;20139;-83
2023/04/03 08:33:09;;;;;;;4.03;1.55;;;;;;;;;;5014705;28;20040;-83
2023/04/03 08:35:53;;;;;;;6.30;1.65;;;;;;;;;;5015363;28;20087;-83
2023/04/03 08:38:38;;;;;;;4.35;1.30;;;;;;;;;;5007457;28;20043;-83
2023/04/03 08:41:32;;;;;;;4.57;1.60;;;;;;;;;;4999769;28;20073;-85
2023/04/03 08:44:17;;;;;;;;;;;;;;;;;;5011997;28;20715;-83
2023/04/03 08:47:05;;;;;;;3.97;1.20;;;;;;;;;;5014696;28;19962;-83
2023/04/03 08:49:57;;;;;;;4.93;1.33;;;6.80;95.30;;;;;;5015145;28;20032;-82
2023/04/03 08:52:47;;;;;;;6.85;1.67;;;6.90;96.00;;;;;;5007348;28;20037;-83
2023/04/03 08:55:39;;;;;;;5.13;1.60;;;7.00;96.40;;;;;;5014377;28;20040;-83
2023/04/03 08:58:34;;;;;;;2.90;1.20;;;7.10;95.20;;;;;;5016923;28;20096;-83
2023/04/03 09:01:28;;;;;;;3.83;1.50;;;;;;;;;;5018919;28;20169;-83
2023/04/03 09:04:15;;;;;;;3.83;1.58;;;7.30;94.90;;;;;;5004548;28;20080;-83
2023/04/03 09:07:05;;;;;;;5.88;1.38;;;;;;;;;;5018634;28;20079;-85
2023/04/03 09:09:50;;;;;;;4.65;1.67;;;;;;;;;;5015910;28;20088;-83
2023/04/03 09:12:40;;;;;;;4.93;1.20;;;;;;;;;;5016993;28;20063;-84
2023/04/03 09:15:26;;;;;;;3.20;1.27;;;;;;;;;;5014434;28;20060;-83
2023/04/03 09:18:16;;;;;;;4.97;1.13;;;;;;;;;;5009727;28;20040;-83
2023/04/03 09:21:16;;;;;;;3.75;1.23;;;;;;;;;;5007971;28;20045;-83
2023/04/03 09:24:01;;;;;;;3.53;1.20;;;;;;;;;;5013568;28;20113;-83
2023/04/03 09:26:59;;;;;;;2.50;1.00;;;8.10;86.30;;;;;;5001666;28;20549;-83
2023/04/03 09:29:45;;;;;;;2.55;0.80;;;;;;;;;;5008169;28;20108;-83
2023/04/03 09:32:36;;;;;;;6.53;1.13;;;;;;;;;;5017241;28;20044;-83
2023/04/03 09:35:23;;;;;;;4.28;1.13;;;;;;;;;;5010848;28;20092;-83
2023/04/03 09:38:10;;;;;;;3.13;1.20;;;;;;;;;;5011264;28;20084;-83
2023/04/03 09:41:07;;;;;;;3.90;1.20;;;;;;;;;;5007246;28;20049;-84
2023/04/03 09:43:53;;;;;;;4.03;1.27;;;;;;;;;;5001982;28;20113;-84
2023/04/03 09:46:39;;;;;;;2.85;1.00;;;;;;;;;;5010350;28;20406;-83
2023/04/03 09:49:24;;;;;;;3.28;1.10;;;;;;;;;;5011141;28;20045;-83
2023/04/03 09:52:19;;;;;;;3.30;1.13;;;;;;;;;;5010589;28;20045;-84
2023/04/03 09:55:08;;;;;;;4.78;1.00;;;;;;;;;;5011344;28;20620;-84
2023/04/03 09:57:58;;;;;;;3.88;1.35;;;;;;;;;;5013221;28;20104;-84
2023/04/03 10:00:43;;;;;;;2.95;1.00;;;;;;;;;;5000047;28;20049;-83
2023/04/03 10:03:30;;;;;;;2.30;0.98;;;;;;;;;;4996374;28;20041;-84
2023/04/03 10:06:23;;;;;;;4.43;1.02;;;;;;;;;;5011250;28;20080;-85
2023/04/03 10:09:20;;;;;;;4.15;1.20;;;9.40;77.90;;;;;;5010654;28;20505;-88
2023/04/03 10:12:05;;;;;;;3.13;0.77;;;;;;;;;;5011649;28;20506;-83
2023/04/03 10:14:53;;;;;;;2.67;0.95;;;;;;;;;;5011719;28;20095;-82
2023/04/03 10:17:53;;;;;;;3.70;1.15;;;;;;;;;;5011734;28;20040;-84
2023/04/03 10:20:43;;;;;;;4.38;1.50;;;;;;;;;;5011395;28;20214;-82
2023/04/03 10:23:33;;;;;;;3.08;1.10;;;;;;;;;;5010963;28;20092;-84
2023/04/03 10:26:47;;;;;;;5.82;1.30;;;9.80;69.60;;;;;;5009966;28;20037;-87
2023/04/03 10:29:38;;;;;;;3.08;1.20;;;;;;;;;;5011450;28;20179;-84
2023/04/03 10:32:23;;;;;;;6.13;2.05;;;;;;;;;;5010826;28;20452;-83
2023/04/03 10:35:13;;;;;;;5.97;1.33;;;;;;;;;;5010371;28;20064;-83
2023/04/03 10:38:21;;;;;;;4.18;1.15;;;;;;;;;;5011493;28;20032;-84
2023/04/03 10:41:30;;;;;;;3.28;0.85;;;9.90;69.30;;;;;;5011322;28;20045;-84
2023/04/03 10:44:21;;;;;;;4.03;0.70;;;;;;;;;;5011017;28;20103;-85
2023/04/03 10:47:15;;;;;;;3.33;1.02;;;;;;;;;;5000477;28;20117;-84
2023/04/03 10:50:15;;;;;;;3.45;0.77;;;;;;;;;;5011293;28;20041;-84
2023/04/03 10:53:09;;;;;;;2.72;0.93;;;;;;;;;;5010245;28;20033;-84
2023/04/03 10:55:57;;;;;;;2.42;1.20;;;;;;;;;;5011497;28;20037;-84
2023/04/03 10:58:44;;;;;;;6.03;1.15;;;;;;;;;;5010288;28;20112;-83
2023/04/03 11:01:38;;;;;;;4.00;1.10;;;10.10;64.70;;;;;;5009645;28;20049;-84
2023/04/03 11:04:26;;;;;;;3.10;1.10;;;10.10;63.60;;;;;;5010915;28;20037;-84
2023/04/03 11:07:15;;;;;;;2.72;1.10;;;;;;;;;;5015079;28;20398;-86
2023/04/03 11:10:12;;;;;;;2.15;1.08;;;;;;;;;;5015136;28;20537;-84
2023/04/03 11:13:07;;;;;;;2.08;1.00;;;;;;;;;;5014776;28;20049;-84
2023/04/03 11:15:53;;;;;;;4.10;1.13;;;;;;;;;;5014022;28;20088;-84
2023/04/03 11:18:41;;;;;;;2.88;1.00;;;;;;;;;;4999344;28;20137;-84
2023/04/03 11:21:32;;;;;;;2.25;1.13;;;;;;;;;;5013344;28;20049;-84
2023/04/03 11:24:21;;;;;;;2.13;1.00;;;;;;;;;;5014384;28;20040;-85
2023/04/03 11:27:06;;;;;;;3.22;1.23;;;;;;;;;;5013261;28;20137;-84
2023/04/03 11:29:52;;;;;;;5.10;1.63;;;;;;;;;;5013413;28;20080;-85
2023/04/03 11:32:47;;;;;;;2.72;0.95;;;;;;;;;;5013877;28;20172;-86
2023/04/03 11:35:33;;;;;;;2.22;1.02;;;;;;;;;;5012654;28;20052;-84
2023/04/03 11:38:23;;;;;;;3.67;1.15;;;;;;;;;;5000846;28;20545;-84
2023/04/03 11:41:08;;;;;;;3.10;0.98;;;;;;;;;;5014677;28;20537;-85
2023/04/03 11:44:01;;;;;;;3.72;1.10;;;;;;;;;;5009012;28;20092;-84
2023/04/03 11:46:50;;;;;;;2.13;1.17;;;;;;;;;;5012833;28;20040;-85
2023/04/03 11:49:55;;;;;;;4.13;1.40;;;;;;;;;;5013524;28;20033;-84
2023/04/03 11:52:40;;;;;;;;;;;;;;;;;;5014124;28;20122;-84
2023/04/03 11:55:24;;;;;;;;;;;;;;;;;;5014010;28;20325;-84
2023/04/03 11:58:17;;;;;;;3.30;1.13;;;;;;;;;;5012824;28;19936;-84
2023/04/03 12:01:02;;;;;;;4.78;1.42;;;;;;;;;;5012875;28;20045;-85
2023/04/03 12:03:47;;;;;;;4.05;1.20;;;;;;;;;;5012368;28;20049;-84
2023/04/03 12:06:35;;;;;;;3.35;1.00;;;;;;;;;;5012070;28;20049;-85
2023/04/03 12:09:23;;;;;;;4.00;1.10;;;;;;;;;;5013801;28;20446;-84
2023/04/03 12:12:26;;;;;;;2.92;1.00;;;;;;;;;;5012540;28;20084;-84
2023/04/03 12:15:19;;;;;;;3.38;1.45;;;;;;;;;;5012508;28;20064;-83
2023/04/03 12:18:22;;;;;;;3.33;1.17;;;;;;;;;;5012594;28;20088;-84
2023/04/03 12:21:07;;;;;;;5.10;1.40;;;;;;;;;;5002605;28;20108;-83
2023/04/03 12:24:02;;;;;;;4.30;1.20;;;;;;;;;;4998492;28;20072;-84
2023/04/03 12:27:13;;;;;;;3.25;1.20;;;;;;;;;;5012921;28;20199;-84
2023/04/03 12:30:03;;;;;;;3.97;1.20;;;;;;;;;;5004158;28;20053;-85
2023/04/03 12:33:03;;;;;;;4.50;1.40;;;;;;;;;;5012956;28;20081;-84
2023/04/03 12:35:54;;;;;;;3.70;1.30;;;;;;;;;;5012707;28;20041;-84
2023/04/03 12:38:54;;;;;;;3.25;1.42;;;;;;;;;;5001255;28;20461;-83
2023/04/03 12:41:47;;;;;;;6.03;1.70;;;;;;;;;;5011281;28;20104;-84
2023/04/03 12:44:38;;;;;;;2.95;1.40;;;;;;;;;;5011329;28;20040;-84
2023/04/03 12:47:35;;;;;;;2.63;1.13;;;;;;;;;;5013011;28;20045;-83
2023/04/03 12:50:23;;;;;;;2.63;1.20;;;;;;;;;;5011761;28;20048;-83
2023/04/03 12:53:34;;;;;;;5.53;1.80;;;;;;;;;;5012997;28;20125;-84
2023/04/03 12:56:26;;;;;;;3.47;1.20;;;;;;;;;;5012693;28;20436;-84
2023/04/03 12:59:16;;;;;;;4.97;1.60;;;;;;;;;;5012747;28;20044;-85
2023/04/03 13:02:02;;;;;;;6.05;3.22;;;;;;;;;;5012571;28;20044;-84
2023/04/03 13:04:47;;;;;;;3.08;1.23;;;;;;;;;;5012504;28;20046;-84
2023/04/03 13:07:33;;;;;;;5.35;2.13;;;;;;;;;;5011001;28;20048;-87
2023/04/03 13:10:18;;;;;;;2.83;1.25;;;;;;;;;;5011369;28;20037;-84
2023/04/03 13:13:10;;;;;;;3.15;1.10;;;;;;;;;;5011670;28;20040;-84
2023/04/03 13:15:55;;;;;;;3.95;1.58;;;;;;;;;;5012037;28;20092;-84
2023/04/03 13:18:40;;;;;;;3.72;1.30;;;;;;;;;;4997196;28;20118;-84
2023/04/03 13:21:28;;;;;;;3.40;1.13;;;;;;;;;;5011316;28;20045;-84
2023/04/03 13:24:13;;;;;;;2.90;1.20;;;;;;;;;;5011382;28;20032;-83
2023/04/03 13:26:58;;;;;;;3.58;1.52;;;;;;;;;;5010198;28;20033;-84
2023/04/03 13:29:42;;;;;;;3.47;1.30;;;;;;;;;;5012042;28;20061;-84
2023/04/03 13:32:28;;;;;;;2.65;1.20;;;;;;;;;;5011066;28;20052;-84
2023/04/03 13:35:28;;;;;;;2.10;1.00;;;;;;;;;;5012262;28;20043;-84
2023/04/03 13:38:19;;;;;;;3.35;1.35;;;;;;;;;;5010749;28;20487;-84
2023/04/03 13:41:07;;;;;;;3.92;1.42;;;;;;;;;;5010956;28;20411;-84
2023/04/03 13:43:52;;;;;;;3.55;1.38;;;;;;;;;;5011514;28;20160;-84
2023/04/03 13:46:36;;;;;;;4.05;1.30;;;;;;;;;;5011610;28;20096;-87
2023/04/03 13:49:22;;;;;;;2.67;1.27;;;;;;;;;;5012090;28;20045;-84
2023/04/03 13:52:19;;;;;;;3.80;1.35;;;;;;;;;;5012139;28;20040;-84
2023/04/03 13:55:16;;;;;;;5.45;1.20;;;;;;;;;;5011781;28;20041;-84
2023/04/03 13:58:21;;;;;;;3.55;1.60;;;;;;;;;;5010176;28;20036;-84
2023/04/03 14:01:18;;;;;;;2.85;1.30;;;;;;;;;;5010708;28;20529;-84
2023/04/03 14:04:10;;;;;;;2.65;1.20;;;;;;;;;;5011734;28;20069;-84
2023/04/03 14:06:56;;;;;;;3.85;1.40;;;;;;;;;;5010042;28;20037;-84
2023/04/03 14:09:40;;;;;;;4.50;1.88;;;;;;;;;;5011275;28;20048;-84
2023/04/03 14:12:27;;;;;;;4.22;1.60;;;;;;;;;;5010680;28;20041;-83
2023/04/03 14:15:17;;;;;;;2.92;1.20;;;;;;;;;;5011525;28;20099;-84
2023/04/03 14:18:02;;;;;;;2.83;1.10;;;;;;;;;;5011067;28;20037;-84
2023/04/03 14:20:47;;;;;;;3.75;1.40;;;;;;;;;;4996036;28;20045;-84
2023/04/03 14:23:32;;;;;;;4.93;1.40;;;;;;;;;;5010328;28;20100;-85
2023/04/03 14:26:18;;;;;;;2.10;1.17;;;;;;;;;;5011680;28;20092;-84
2023/04/03 14:29:03;;;;;;;2.70;1.30;;;;;;;;;;5009769;28;20099;-84
2023/04/03 14:31:48;;;;;;;2.63;1.23;;;;;;;;;;5010987;28;20048;-84
2023/04/03 14:34:33;;;;;;;3.28;1.20;;;;;;;;;;4996560;28;20107;-84
2023/04/03 14:37:20;;;;;;;2.70;1.17;;;;;;;;;;5010325;28;20041;-84
2023/04/03 14:40:05;;;;;;;4.85;1.23;;;;;;;;;;5012900;28;20127;-84
2023/04/03 14:42:50;;;;;;;2.70;1.30;;;;;;;;;;5013706;28;20098;-85
2023/04/03 14:45:34;;;;;;;3.42;1.30;;;;;;;;;;5014290;28;20434;-84
2023/04/03 14:48:21;;;;;;;2.70;1.00;;;;;;;;;;5015180;28;20084;-84
2023/04/03 14:51:06;;;;;;;5.43;1.77;;;;;;;;;;5014722;28;20037;-85
2023/04/03 14:53:51;;;;;;;4.00;1.42;;;;;;;;;;5013845;28;20099;-84
2023/04/03 14:56:35;;;;;;;4.82;1.30;;;;;;;;;;5014047;28;20049;-84
2023/04/03 14:59:21;;;;;;;2.30;1.05;;;;;;;;;;5000329;28;20041;-84
2023/04/03 15:02:29;;;;;;;2.50;1.33;;;;;;;;;;5013274;28;20052;-84
2023/04/03 15:05:14;;;;;;;2.45;0.95;;;;;;;;;;5014707;28;20037;-84
2023/04/03 15:08:00;;;;;;;2.50;1.10;;;;;;;;;;5014302;28;20533;-84
2023/04/03 15:10:45;;;;;;;3.58;1.10;;;;;;;;;;5013717;28;20037;-86
2023/04/03 15:13:29;;;;;;;5.43;1.23;;;;;;;;;;5014726;28;20115;-84
2023/04/03 15:16:18;;;;;;;1.92;0.98;;;;;;;;;;5014799;28;20526;-85
2023/04/03 15:19:03;;;;;;;5.35;0.95;;;;;;;;;;5013957;28;20092;-84
2023/04/03 15:21:47;;;;;;;3.92;1.27;;;;;;;;;;5014103;28;20081;-86
2023/04/03 15:24:32;;;;;;;1.90;1.00;;;;;;;;;;5014633;28;20112;-84
2023/04/03 15:27:16;;;;;;;2.70;1.10;;;;;;;;;;5013294;28;20116;-84
2023/04/03 15:30:01;;;;;;;1.95;0.85;;;;;;;;;;5012489;28;20064;-84
2023/04/03 15:32:46;;;;;;;4.85;1.17;;;;;;;;;;4999743;28;20048;-84
2023/04/03 15:35:31;;;;;;;2.67;1.08;;;;;;;;;;5014117;28;20085;-85
2023/04/03 15:38:15;;;;;;;2.58;1.05;;;;;;;;;;5013484;28;20048;-84
2023/04/03 15:41:00;;;;;;;2.63;1.20;;;;;;;;;;4998610;28;20501;-84
2023/04/03 15:43:44;;;;;;;4.47;1.10;;;;;;;;;;5013110;28;20121;-84
2023/04/03 15:46:29;;;;;;;2.45;0.93;;;;;;;;;;5012741;28;20176;-85
2023/04/03 15:49:14;;;;;;;2.97;1.10;;;;;;;;;;4998903;28;20402;-84
2023/04/03 15:51:59;;;;;;;3.08;1.20;;;;;;;;;;5012521;28;20103;-84
2023/04/03 15:54:44;;;;;;;3.35;1.58;;;;;;;;;;5013723;28;20078;-84
2023/04/03 15:57:28;;;;;;;3.72;1.65;;;;;;;;;;5013919;28;20064;-84
2023/04/03 16:00:14;;;;;;;5.40;1.38;;;;;;;;;;5013250;28;20064;-83
2023/04/03 16:03:01;;;;;;;2.30;1.35;;;;;;;;;;5012247;28;20154;-84
2023/04/03 16:05:46;;;;;;;4.68;1.65;;;;;;;;;;5013053;28;20502;-84
2023/04/03 16:08:31;;;;;;;3.13;1.55;;;;;;;;;;5013541;28;20048;-85
2023/04/03 16:11:16;;;;;;;3.08;1.35;;;;;;;;;;5012197;28;20044;-85
2023/04/03 16:14:00;;;;;;;4.05;1.10;;;;;;;;;;5012119;28;20041;-85
2023/04/03 16:16:45;;;;;;;3.13;1.50;;;;;;;;;;5012451;28;20049;-85
2023/04/03 16:19:30;;;;;;;4.78;1.48;;;;;;;;;;4998815;28;20160;-84
2023/04/03 16:22:14;;;;;;;2.70;1.40;;;;;;;;;;5012772;28;20623;-85
2023/04/03 16:24:59;;;;;;;4.25;1.42;;;;;;;;;;5013016;28;20048;-84
2023/04/03 16:27:44;;;;;;;3.15;1.20;;;;;;;;;;4998664;28;20394;-86
2023/04/03 16:30:28;;;;;;;3.00;1.52;;;;;;;;;;5011721;28;20049;-87
2023/04/03 16:33:13;;;;;;;3.65;1.02;;;;;;;;;;5011854;28;20541;-86
2023/04/03 16:35:58;;;;;;;4.78;1.52;;;;;;;;;;5010070;28;20037;-86